Time;durP1;ratioP1;P1;durP2;ratioP2;P2;SDS_P1;SDS_P2;PMS_P1;PMS_P2;Temp;Humidity;BMP_temperature;BMP_pressure;BME280_temperature;BME280_humidity;BME280_pressure;Samples;Min_cycle;Max_cycle;Signal;HPM_P1;HPM_P2
2023/06/15 00:02:04;;;;;;;2.30;2.05;;;20.80;49.10;;;;;;5070374;28;20045;-68
2023/06/15 00:04:30;;;;;;;4.05;2.05;;;20.70;49.40;;;;;;5073395;28;20135;-68
2023/06/15 00:06:55;;;;;;;2.85;1.90;;;20.70;49.60;;;;;;5068936;28;20032;-68
2023/06/15 00:09:21;;;;;;;2.97;2.00;;;20.60;50.00;;;;;;5082107;28;20109;-67
2023/06/15 00:11:47;;;;;;;3.05;2.15;;;20.60;50.10;;;;;;5075157;28;20013;-67
2023/06/15 00:14:12;;;;;;;2.67;2.17;;;20.60;50.30;;;;;;5071941;28;20028;-67
2023/06/15 00:16:41;;;;;;;2.75;2.03;;;20.50;50.50;;;;;;5080089;28;20550;-67
2023/06/15 00:19:08;;;;;;;2.50;2.10;;;20.50;50.80;;;;;;5089649;28;20099;-67
2023/06/15 00:21:41;;;;;;;3.05;2.40;;;20.40;51.10;;;;;;5073278;28;20043;-67
2023/06/15 00:24:09;;;;;;;2.58;2.30;;;20.40;51.40;;;;;;5077302;28;20025;-67
2023/06/15 00:26:36;;;;;;;4.88;2.20;;;20.30;52.00;;;;;;5072633;28;20090;-67
2023/06/15 00:29:01;;;;;;;4.20;2.33;;;20.30;52.00;;;;;;5080288;28;20051;-67
2023/06/15 00:31:27;;;;;;;4.72;2.50;;;20.20;52.50;;;;;;5077374;28;20413;-68
2023/06/15 00:33:53;;;;;;;4.15;2.30;;;20.20;53.10;;;;;;5079680;28;20047;-68
2023/06/15 00:36:19;;;;;;;3.67;2.28;;;20.10;53.10;;;;;;5078123;28;20039;-67
2023/06/15 00:38:44;;;;;;;3.40;2.20;;;20.10;53.30;;;;;;5091043;28;20023;-67
2023/06/15 00:41:10;;;;;;;3.88;2.30;;;20.10;53.60;;;;;;5083336;28;20223;-68
2023/06/15 00:43:35;;;;;;;3.08;2.30;;;20.00;53.80;;;;;;5077367;28;20028;-68
2023/06/15 00:46:05;;;;;;;2.88;2.38;;;20.10;54.00;;;;;;5089910;28;20473;-68
2023/06/15 00:48:31;;;;;;;3.05;2.40;;;20.00;54.10;;;;;;5078897;28;20174;-67
2023/06/15 00:50:57;;;;;;;4.68;2.45;;;20.00;54.30;;;;;;5084938;28;20137;-67
2023/06/15 00:53:24;;;;;;;4.28;2.38;;;20.00;54.50;;;;;;5094386;28;20024;-67
2023/06/15 00:55:50;;;;;;;3.33;2.40;;;20.00;54.70;;;;;;5084758;28;20032;-67
2023/06/15 00:58:18;;;;;;;4.50;2.35;;;20.00;55.20;;;;;;5073440;28;20017;-68
2023/06/15 01:00:48;;;;;;;4.50;3.58;;;20.00;55.30;;;;;;5084233;28;20096;-67
2023/06/15 01:03:15;;;;;;;5.13;3.10;;;20.00;55.60;;;;;;5081067;28;20050;-67
2023/06/15 01:05:44;;;;;;;4.47;3.15;;;20.00;55.60;;;;;;5090512;28;20036;-67
2023/06/15 01:08:12;;;;;;;4.28;2.88;;;20.00;55.90;;;;;;5082630;28;20455;-68
2023/06/15 01:10:38;;;;;;;3.58;2.80;;;19.90;56.20;;;;;;5084693;28;20582;-68
2023/06/15 01:13:05;;;;;;;3.03;2.47;;;19.90;56.40;;;;;;5093277;28;20024;-68
2023/06/15 01:15:31;;;;;;;4.30;2.70;;;19.90;56.60;;;;;;5081155;28;20129;-68
2023/06/15 01:18:03;;;;;;;3.92;2.80;;;19.90;56.60;;;;;;5076212;28;20025;-68
2023/06/15 01:20:39;;;;;;;;;;;19.90;56.70;;;;;;5088373;28;20024;-69
2023/06/15 01:23:10;;;;;;;4.65;2.70;;;19.80;56.40;;;;;;5078040;28;19908;-69
2023/06/15 01:25:36;;;;;;;;;;;19.80;56.90;;;;;;5076857;28;20591;-68
2023/06/15 01:28:04;;;;;;;3.03;2.40;;;19.80;56.60;;;;;;5093320;28;19904;-68
2023/06/15 01:30:37;;;;;;;4.43;2.85;;;19.70;56.70;;;;;;5087622;28;20486;-68
2023/06/15 01:33:02;;;;;;;4.30;2.92;;;19.70;57.40;;;;;;5072805;28;20063;-67
2023/06/15 01:35:28;;;;;;;3.53;2.95;;;19.70;57.30;;;;;;5076352;28;20056;-68
2023/06/15 01:37:53;;;;;;;4.60;2.95;;;19.70;57.40;;;;;;5082770;28;20023;-68
2023/06/15 01:40:19;;;;;;;3.20;2.47;;;19.60;57.50;;;;;;5076157;28;20039;-68
2023/06/15 01:42:46;;;;;;;3.65;2.55;;;19.70;58.10;;;;;;5089088;28;20020;-68
2023/06/15 01:45:14;;;;;;;5.35;2.70;;;19.70;57.50;;;;;;5081821;28;20012;-68
2023/06/15 01:47:40;;;;;;;3.85;2.47;;;19.70;57.60;;;;;;5080175;28;20035;-68
2023/06/15 01:50:08;;;;;;;5.40;2.38;;;19.60;57.50;;;;;;5090943;28;20028;-68
2023/06/15 01:52:34;;;;;;;3.33;2.75;;;19.60;57.60;;;;;;5084278;28;20040;-68
2023/06/15 01:54:59;;;;;;;3.47;2.83;;;19.60;57.80;;;;;;5074548;28;20024;-68
2023/06/15 01:57:25;;;;;;;5.38;2.67;;;19.60;57.90;;;;;;5083333;28;20119;-68
2023/06/15 01:59:54;;;;;;;5.88;2.50;;;19.60;57.90;;;;;;5089053;28;20032;-67
2023/06/15 02:02:20;;;;;;;5.22;2.53;;;19.60;58.00;;;;;;5083045;28;20013;-68
2023/06/15 02:04:46;;;;;;;4.63;2.40;;;19.60;58.20;;;;;;5072228;28;20012;-67
2023/06/15 02:07:12;;;;;;;3.53;2.70;;;19.60;58.50;;;;;;5072636;28;20111;-67
2023/06/15 02:09:37;;;;;;;4.55;2.70;;;19.50;58.60;;;;;;5084892;28;20497;-68
2023/06/15 02:12:03;;;;;;;3.85;2.50;;;19.60;58.70;;;;;;5081846;28;20108;-68
2023/06/15 02:14:29;;;;;;;3.65;2.40;;;19.50;58.70;;;;;;5081387;28;20106;-68
2023/06/15 02:16:56;;;;;;;3.78;2.70;;;19.50;58.70;;;;;;5085546;28;20108;-68
2023/06/15 02:19:22;;;;;;;3.70;2.42;;;19.40;58.80;;;;;;5079773;28;20012;-68
2023/06/15 02:21:49;;;;;;;4.63;2.90;;;19.40;59.00;;;;;;5074743;28;20596;-68
2023/06/15 02:24:16;;;;;;;3.60;2.45;;;19.40;59.20;;;;;;5084519;28;20020;-67
2023/06/15 02:26:42;;;;;;;3.58;2.70;;;19.30;59.20;;;;;;5085913;28;20078;-68
2023/06/15 02:29:07;;;;;;;4.07;2.80;;;19.40;59.40;;;;;;5090489;28;20032;-67
2023/06/15 02:31:33;;;;;;;2.78;2.35;;;19.30;59.30;;;;;;5088513;28;20028;-67
2023/06/15 02:33:59;;;;;;;4.22;2.70;;;19.30;59.50;;;;;;5070616;28;20040;-68
2023/06/15 02:36:24;;;;;;;4.28;2.38;;;19.30;59.60;;;;;;5077633;28;20073;-68
2023/06/15 02:38:50;;;;;;;3.70;2.70;;;19.30;59.80;;;;;;5079641;28;20486;-68
2023/06/15 02:41:15;;;;;;;5.20;2.85;;;19.30;59.90;;;;;;5073831;28;20017;-69
2023/06/15 02:43:41;;;;;;;3.03;2.67;;;19.20;60.10;;;;;;5077555;28;20032;-69
2023/06/15 02:46:06;;;;;;;5.07;3.00;;;19.20;60.10;;;;;;5072399;28;20115;-68
2023/06/15 02:48:33;;;;;;;4.13;2.60;;;19.10;60.40;;;;;;5079092;28;20113;-68
2023/06/15 02:50:58;;;;;;;3.15;2.70;;;19.10;60.40;;;;;;5087339;28;20035;-68
2023/06/15 02:53:24;;;;;;;3.25;2.58;;;19.10;60.50;;;;;;5075261;28;20037;-68
2023/06/15 02:55:51;;;;;;;4.18;2.75;;;19.10;60.50;;;;;;5071324;28;20067;-68
2023/06/15 02:58:20;;;;;;;4.57;2.85;;;19.10;60.70;;;;;;5086099;28;20023;-68
2023/06/15 03:00:51;;;;;;;4.45;3.00;;;19.10;60.70;;;;;;5077560;28;20020;-68
2023/06/15 03:03:22;;;;;;;4.35;2.72;;;19.10;60.60;;;;;;5082204;28;20024;-68
2023/06/15 03:05:48;;;;;;;5.05;2.78;;;19.10;60.70;;;;;;5091974;28;20494;-68
2023/06/15 03:08:15;;;;;;;4.82;2.75;;;19.10;60.80;;;;;;5082433;28;20440;-67
2023/06/15 03:10:40;;;;;;;3.90;2.97;;;19.10;60.80;;;;;;5071627;28;20028;-67
2023/06/15 03:13:06;;;;;;;4.72;3.03;;;19.10;61.30;;;;;;5087800;28;20034;-67
2023/06/15 03:15:32;;;;;;;3.55;2.60;;;19.10;61.10;;;;;;5091120;28;20035;-67
2023/06/15 03:17:57;;;;;;;4.60;2.95;;;19.10;60.90;;;;;;5075257;28;20574;-67
2023/06/15 03:20:23;;;;;;;5.15;2.92;;;19.10;60.80;;;;;;5080585;28;20065;-67
2023/06/15 03:22:49;;;;;;;5.75;2.97;;;19.10;60.90;;;;;;5074909;28;20115;-67
2023/06/15 03:25:14;;;;;;;7.53;3.13;;;19.10;60.90;;;;;;5088453;28;20435;-68
2023/06/15 03:27:40;;;;;;;2.72;2.50;;;19.10;60.90;;;;;;5087862;28;20012;-68
2023/06/15 03:30:09;;;;;;;5.82;2.78;;;19.10;60.80;;;;;;5087875;28;20099;-68
2023/06/15 03:32:34;;;;;;;5.13;2.95;;;19.10;60.80;;;;;;5075710;28;20016;-68
2023/06/15 03:35:00;;;;;;;4.85;2.85;;;19.10;60.90;;;;;;5089502;28;20020;-68
2023/06/15 03:37:26;;;;;;;3.35;2.65;;;19.10;60.80;;;;;;5076033;28;20016;-68
2023/06/15 03:39:51;;;;;;;4.68;2.50;;;19.00;60.80;;;;;;5085179;28;20035;-68
2023/06/15 03:42:17;;;;;;;6.45;2.80;;;19.10;60.90;;;;;;5086222;28;20012;-68
2023/06/15 03:44:42;;;;;;;3.70;2.80;;;19.00;61.10;;;;;;5083443;28;20020;-68
2023/06/15 03:47:08;;;;;;;5.03;2.55;;;19.00;61.00;;;;;;5071769;28;20029;-68
2023/06/15 03:49:34;;;;;;;5.47;2.75;;;19.10;61.00;;;;;;5075246;28;20020;-68
2023/06/15 03:51:59;;;;;;;5.13;2.63;;;19.00;61.10;;;;;;5087144;28;20483;-68
2023/06/15 03:54:25;;;;;;;3.97;2.22;;;19.00;61.20;;;;;;5071798;28;20040;-68
2023/06/15 03:56:51;;;;;;;3.83;2.75;;;19.00;61.10;;;;;;5070285;28;20027;-68
2023/06/15 03:59:16;;;;;;;4.40;2.60;;;19.00;61.20;;;;;;5077058;28;20028;-68
2023/06/15 04:01:43;;;;;;;4.47;2.90;;;19.00;61.20;;;;;;5069943;28;20055;-68
2023/06/15 04:04:08;;;;;;;6.75;2.50;;;19.10;61.20;;;;;;5086649;28;20020;-68
2023/06/15 04:06:35;;;;;;;3.17;2.47;;;19.10;61.80;;;;;;5083335;28;20020;-68
2023/06/15 04:09:01;;;;;;;3.95;2.72;;;19.10;61.10;;;;;;5072920;28;20048;-68
2023/06/15 04:11:27;;;;;;;3.53;2.33;;;19.10;61.10;;;;;;5080163;28;20052;-68
2023/06/15 04:13:52;;;;;;;4.78;2.78;;;19.10;61.10;;;;;;5087419;28;20020;-68
2023/06/15 04:16:18;;;;;;;3.65;2.53;;;19.10;61.00;;;;;;5083772;28;20439;-68
2023/06/15 04:18:43;;;;;;;4.68;2.63;;;19.20;61.00;;;;;;5084848;28;20035;-68
2023/06/15 04:21:09;;;;;;;4.63;2.47;;;19.20;61.00;;;;;;5084928;28;20021;-68
2023/06/15 04:23:35;;;;;;;2.85;2.50;;;19.20;61.00;;;;;;5073643;28;20028;-68
2023/06/15 04:26:00;;;;;;;3.30;2.40;;;19.30;61.10;;;;;;5077803;28;20055;-68
2023/06/15 04:28:26;;;;;;;4.57;3.00;;;19.30;61.10;;;;;;5069928;28;20031;-68
2023/06/15 04:31:05;;;;;;;4.35;2.70;;;19.30;61.20;;;;;;5070230;28;20024;-68
2023/06/15 04:33:32;;;;;;;4.00;2.80;;;19.40;61.20;;;;;;5083777;28;20024;-68
2023/06/15 04:35:57;;;;;;;4.93;2.90;;;19.40;61.10;;;;;;5078234;28;20033;-68
2023/06/15 04:38:23;;;;;;;4.80;2.90;;;19.40;61.00;;;;;;5069901;28;20044;-68
2023/06/15 04:40:48;;;;;;;3.55;2.65;;;19.50;61.00;;;;;;5088189;28;20024;-68
2023/06/15 04:43:14;;;;;;;4.75;3.00;;;19.40;61.00;;;;;;5084013;28;20021;-68
2023/06/15 04:45:39;;;;;;;3.20;2.40;;;19.50;60.90;;;;;;5083388;28;20078;-68
2023/06/15 04:48:06;;;;;;;5.13;2.45;;;19.50;60.70;;;;;;5072668;28;20040;-68
2023/06/15 04:50:32;;;;;;;5.40;2.85;;;19.60;60.70;;;;;;5085873;28;20024;-69
2023/06/15 04:52:58;;;;;;;5.03;2.72;;;19.80;60.50;;;;;;5087823;28;20383;-68
2023/06/15 04:55:24;;;;;;;3.40;2.70;;;20.20;59.80;;;;;;5077567;28;20514;-68
2023/06/15 04:57:49;;;;;;;4.15;3.42;;;20.60;59.00;;;;;;5086607;28;20032;-67
2023/06/15 05:00:15;;;;;;;6.05;2.83;;;20.80;58.50;;;;;;5088635;28;20482;-68
2023/06/15 05:02:41;;;;;;;4.95;2.97;;;21.10;58.00;;;;;;5081374;28;20024;-68
2023/06/15 05:05:06;;;;;;;4.53;2.70;;;21.30;57.40;;;;;;5078109;28;20641;-68
2023/06/15 05:07:32;;;;;;;4.72;3.03;;;21.70;56.70;;;;;;5069801;28;20033;-67
2023/06/15 05:09:58;;;;;;;3.72;3.17;;;22.00;56.10;;;;;;5073796;28;20047;-67
2023/06/15 05:12:23;;;;;;;4.28;3.03;;;22.10;55.70;;;;;;5075868;28;20016;-68
2023/06/15 05:14:49;;;;;;;3.50;2.63;;;22.40;55.20;;;;;;5093683;28;20024;-67
2023/06/15 05:17:14;;;;;;;5.57;3.30;;;22.60;54.80;;;;;;5093186;28;20028;-68
2023/06/15 05:19:40;;;;;;;4.93;3.00;;;22.70;54.40;;;;;;5082438;28;20034;-68
2023/06/15 05:22:06;;;;;;;4.53;2.80;;;22.90;54.20;;;;;;5075527;28;20031;-68
2023/06/15 05:24:32;;;;;;;5.18;3.10;;;23.00;53.80;;;;;;5091947;28;20023;-68
2023/06/15 05:26:58;;;;;;;7.43;3.67;;;23.00;53.80;;;;;;5097871;28;20538;-67
2023/06/15 05:29:23;;;;;;;4.65;3.10;;;22.90;53.60;;;;;;5106415;28;20035;-68
2023/06/15 05:31:49;;;;;;;6.43;2.83;;;23.00;53.80;;;;;;5082394;28;20104;-68
2023/06/15 05:34:15;;;;;;;4.97;3.03;;;23.20;53.60;;;;;;5074489;28;20400;-68
2023/06/15 05:36:40;;;;;;;5.53;3.47;;;23.30;53.40;;;;;;5072666;28;20043;-68
2023/06/15 05:39:06;;;;;;;4.43;2.80;;;23.20;53.30;;;;;;5073822;28;20013;-69
2023/06/15 05:41:32;;;;;;;6.05;3.33;;;23.20;53.60;;;;;;5082405;28;20385;-68
2023/06/15 05:43:59;;;;;;;3.95;2.92;;;23.00;53.60;;;;;;5091182;28;20119;-68
2023/06/15 05:46:25;;;;;;;5.03;3.00;;;23.00;53.70;;;;;;5072526;28;20021;-68
2023/06/15 05:48:50;;;;;;;5.22;3.17;;;23.10;53.70;;;;;;5075226;28;20378;-68
2023/06/15 05:51:16;;;;;;;3.75;2.70;;;23.10;53.50;;;;;;5074473;28;20495;-68
2023/06/15 05:53:42;;;;;;;6.80;3.05;;;23.20;53.50;;;;;;5080298;28;20017;-69
2023/06/15 05:56:08;;;;;;;4.00;2.88;;;23.30;53.20;;;;;;5081134;28;20024;-69
2023/06/15 05:58:34;;;;;;;4.63;2.47;;;23.30;53.00;;;;;;5082927;28;20026;-66
2023/06/15 06:00:59;;;;;;;3.60;2.60;;;23.40;52.90;;;;;;5074119;28;20074;-67
2023/06/15 06:03:25;;;;;;;5.50;3.10;;;23.40;52.70;;;;;;5086284;28;20025;-66
2023/06/15 06:05:50;;;;;;;4.28;3.17;;;23.40;52.10;;;;;;5093160;28;20028;-69
2023/06/15 06:08:17;;;;;;;3.35;2.90;;;23.30;52.10;;;;;;5074120;28;20032;-69
2023/06/15 06:10:42;;;;;;;5.25;2.90;;;23.20;52.20;;;;;;5080662;28;20048;-68
2023/06/15 06:13:08;;;;;;;7.60;3.40;;;23.10;52.30;;;;;;5076078;28;20065;-68
2023/06/15 06:15:34;;;;;;;5.03;2.80;;;23.20;52.30;;;;;;5079228;28;20032;-68
2023/06/15 06:18:01;;;;;;;4.03;3.10;;;23.30;52.20;;;;;;5079913;28;20356;-68
2023/06/15 06:20:27;;;;;;;4.68;3.10;;;23.30;51.90;;;;;;5072990;28;20425;-68
2023/06/15 06:22:52;;;;;;;4.28;2.88;;;23.40;51.60;;;;;;5086627;28;20085;-68
2023/06/15 06:25:18;;;;;;;5.15;3.00;;;23.50;51.50;;;;;;5084420;28;20024;-68
2023/06/15 06:27:44;;;;;;;8.18;3.33;;;23.60;51.50;;;;;;5091328;28;20024;-68
2023/06/15 06:30:10;;;;;;;3.65;2.60;;;23.70;51.00;;;;;;5087414;28;20023;-68
2023/06/15 06:32:36;;;;;;;4.53;2.95;;;23.90;50.80;;;;;;5095829;28;20115;-68
2023/06/15 06:35:03;;;;;;;5.35;3.10;;;24.10;51.20;;;;;;5081835;28;20066;-70
2023/06/15 06:37:30;;;;;;;3.70;2.60;;;24.20;50.00;;;;;;5071460;28;20132;-68
2023/06/15 06:39:55;;;;;;;5.15;2.80;;;24.50;50.00;;;;;;5074733;28;20103;-68
2023/06/15 06:42:21;;;;;;;3.83;2.85;;;24.70;49.60;;;;;;5086087;28;20020;-68
2023/06/15 06:44:46;;;;;;;3.63;2.80;;;24.80;49.10;;;;;;5092036;28;20439;-69
2023/06/15 06:47:12;;;;;;;4.22;2.78;;;24.80;48.80;;;;;;5089746;28;20099;-69
2023/06/15 06:49:37;;;;;;;3.13;2.67;;;24.80;48.30;;;;;;5090184;28;20044;-68
2023/06/15 06:52:05;;;;;;;3.20;2.35;;;24.90;48.40;;;;;;5080763;28;20024;-66
2023/06/15 06:54:30;;;;;;;4.07;2.55;;;25.10;48.30;;;;;;5088491;28;20711;-67
2023/06/15 06:56:56;;;;;;;5.47;2.50;;;25.20;48.00;;;;;;5077220;28;20120;-67
2023/06/15 06:59:22;;;;;;;4.60;2.55;;;25.30;47.70;;;;;;5081378;28;20062;-66
2023/06/15 07:01:47;;;;;;;4.68;2.70;;;25.50;47.50;;;;;;5083324;28;20456;-66
2023/06/15 07:04:13;;;;;;;4.47;2.80;;;25.60;47.20;;;;;;5079603;28;20039;-66
2023/06/15 07:06:38;;;;;;;5.57;2.72;;;25.80;47.10;;;;;;5068917;28;20020;-66
2023/06/15 07:09:04;;;;;;;4.78;2.75;;;25.80;46.90;;;;;;5072334;28;20480;-66
2023/06/15 07:11:29;;;;;;;4.13;2.50;;;25.90;46.60;;;;;;5086119;28;20492;-66
2023/06/15 07:13:55;;;;;;;5.78;2.85;;;25.90;46.60;;;;;;5085172;28;20032;-65
2023/06/15 07:16:21;;;;;;;4.57;2.65;;;26.00;46.10;;;;;;5087550;28;20486;-65
2023/06/15 07:18:46;;;;;;;3.22;2.47;;;26.20;46.00;;;;;;5087181;28;20023;-65
2023/06/15 07:21:12;;;;;;;7.13;3.00;;;26.30;45.70;;;;;;5085008;28;20025;-66
2023/06/15 07:23:37;;;;;;;5.95;2.60;;;26.50;45.60;;;;;;5084192;28;20077;-66
2023/06/15 07:26:03;;;;;;;4.93;2.60;;;26.50;45.40;;;;;;5088143;28;20032;-66
2023/06/15 07:28:28;;;;;;;3.63;2.33;;;26.60;45.00;;;;;;5089230;28;20035;-66
2023/06/15 07:30:54;;;;;;;2.90;2.30;;;26.60;45.00;;;;;;5085301;28;20020;-66
2023/06/15 07:33:20;;;;;;;4.68;2.92;;;26.70;44.90;;;;;;5086560;28;20466;-66
2023/06/15 07:35:46;;;;;;;4.22;3.00;;;26.50;44.80;;;;;;5087480;28;20034;-67
2023/06/15 07:38:13;;;;;;;3.53;2.60;;;26.30;44.80;;;;;;5090662;28;20035;-67
2023/06/15 07:40:39;;;;;;;4.38;2.53;;;26.40;45.10;;;;;;5077350;28;20017;-67
2023/06/15 07:43:04;;;;;;;5.57;2.70;;;26.50;44.20;;;;;;5084261;28;20047;-67
2023/06/15 07:45:30;;;;;;;3.97;2.38;;;26.70;43.80;;;;;;5090757;28;20670;-67
2023/06/15 07:47:55;;;;;;;5.63;2.83;;;26.80;43.60;;;;;;5083920;28;20025;-67
2023/06/15 07:50:21;;;;;;;3.63;2.90;;;26.80;43.10;;;;;;5086044;28;20032;-67
2023/06/15 07:52:49;;;;;;;3.97;2.88;;;26.90;43.30;;;;;;5079363;28;20501;-67
2023/06/15 07:55:15;;;;;;;3.20;2.45;;;27.00;43.30;;;;;;5089448;28;20028;-67
2023/06/15 07:57:40;;;;;;;3.60;2.50;;;27.20;43.30;;;;;;5084711;28;20020;-67
2023/06/15 08:00:07;;;;;;;4.38;2.30;;;27.30;44.00;;;;;;5088644;28;20016;-67
2023/06/15 08:02:33;;;;;;;3.45;2.65;;;27.40;43.30;;;;;;5080930;28;20052;-67
2023/06/15 08:04:59;;;;;;;5.15;2.65;;;27.50;43.10;;;;;;5090232;28;20055;-67
2023/06/15 08:07:24;;;;;;;5.63;2.63;;;27.20;43.00;;;;;;5081806;28;20024;-66
2023/06/15 08:09:50;;;;;;;4.15;2.90;;;27.30;43.10;;;;;;5091861;28;20020;-67
2023/06/15 08:12:17;;;;;;;7.90;3.25;;;27.20;43.30;;;;;;5092201;28;20032;-66
2023/06/15 08:14:42;;;;;;;4.18;2.78;;;27.10;43.30;;;;;;5088712;28;20024;-66
2023/06/15 08:17:08;;;;;;;4.97;3.05;;;26.80;43.40;;;;;;5086735;28;20107;-66
2023/06/15 08:19:34;;;;;;;4.15;2.80;;;26.90;43.70;;;;;;5089029;28;20031;-67
2023/06/15 08:21:59;;;;;;;3.30;2.70;;;27.20;43.40;;;;;;5088251;28;20020;-67
2023/06/15 08:24:25;;;;;;;3.72;2.70;;;27.20;43.30;;;;;;5091524;28;20510;-66
2023/06/15 08:26:50;;;;;;;5.40;3.13;;;27.30;43.30;;;;;;5088931;28;20544;-67
2023/06/15 08:29:16;;;;;;;4.22;2.83;;;27.20;43.10;;;;;;5090320;28;20032;-67
2023/06/15 08:31:42;;;;;;;4.20;2.70;;;27.30;43.50;;;;;;5091765;28;20024;-67
2023/06/15 08:34:08;;;;;;;4.13;2.83;;;27.40;43.10;;;;;;5088261;28;20135;-67
2023/06/15 08:36:33;;;;;;;5.85;3.15;;;27.50;43.10;;;;;;5088739;28;20024;-67
2023/06/15 08:38:59;;;;;;;6.53;2.80;;;27.70;42.70;;;;;;5089532;28;20542;-67
2023/06/15 08:41:26;;;;;;;6.82;2.95;;;27.80;42.40;;;;;;5094215;28;20099;-67
2023/06/15 08:43:56;;;;;;;4.53;2.58;;;27.80;41.40;;;;;;5088589;28;20529;-67
2023/06/15 08:46:24;;;;;;;3.70;2.80;;;27.80;41.60;;;;;;5089851;28;20032;-67
2023/06/15 08:48:52;;;;;;;5.35;2.88;;;28.00;41.40;;;;;;5093408;28;20306;-67
2023/06/15 08:51:17;;;;;;;7.35;2.90;;;27.90;39.70;;;;;;5092745;28;20069;-67
2023/06/15 08:53:45;;;;;;;3.80;2.33;;;27.40;39.70;;;;;;5094676;28;20107;-67
2023/06/15 08:56:11;;;;;;;6.40;2.30;;;27.30;40.40;;;;;;5091245;28;20474;-67
2023/06/15 08:58:37;;;;;;;6.43;2.70;;;27.50;40.70;;;;;;5092245;28;20035;-67
2023/06/15 09:01:05;;;;;;;5.57;2.72;;;27.60;40.60;;;;;;5086698;28;20500;-67
2023/06/15 09:03:33;;;;;;;2.92;2.05;;;27.40;40.60;;;;;;5092400;28;20012;-67
2023/06/15 09:05:58;;;;;;;3.08;2.45;;;27.60;41.30;;;;;;5094722;28;20034;-67
2023/06/15 09:08:24;;;;;;;5.25;2.38;;;27.70;40.60;;;;;;5094012;28;20111;-67
2023/06/15 09:10:50;;;;;;;5.03;2.53;;;27.90;40.10;;;;;;5091737;28;20054;-67
2023/06/15 09:13:16;;;;;;;5.45;2.50;;;28.00;39.70;;;;;;5089203;28;20020;-67
2023/06/15 09:15:43;;;;;;;2.95;2.50;;;27.90;39.20;;;;;;5091877;28;20043;-67
2023/06/15 09:18:10;;;;;;;3.95;2.65;;;27.70;39.30;;;;;;5092196;28;20586;-67
2023/06/15 09:20:40;;;;;;;4.80;2.50;;;27.50;39.50;;;;;;5093896;28;20505;-67
2023/06/15 09:23:10;;;;;;;3.85;2.60;;;27.60;39.90;;;;;;5093218;28;20019;-67
2023/06/15 09:25:36;;;;;;;4.80;2.30;;;27.60;39.20;;;;;;5091883;28;20024;-67
2023/06/15 09:28:05;;;;;;;4.50;2.40;;;27.70;39.50;;;;;;5093661;28;20016;-67
2023/06/15 09:30:38;;;;;;;3.95;2.50;;;27.90;39.40;;;;;;5091278;28;20043;-67
2023/06/15 09:33:18;;;;;;;3.97;2.10;;;27.90;38.80;;;;;;5092690;28;20028;-67
2023/06/15 09:36:02;;;;;;;4.38;2.78;;;28.00;38.80;;;;;;5091146;28;20502;-67
2023/06/15 09:38:42;;;;;;;3.25;2.50;;;27.80;38.70;;;;;;5091529;28;20416;-67
2023/06/15 09:41:09;;;;;;;4.95;2.60;;;27.80;38.80;;;;;;5090967;28;20020;-67
2023/06/15 09:43:35;;;;;;;6.15;2.50;;;27.50;38.90;;;;;;5093127;28;20085;-67
2023/06/15 09:46:04;;;;;;;4.28;2.30;;;27.30;39.30;;;;;;5091193;28;20028;-67
2023/06/15 09:48:33;;;;;;;3.83;2.17;;;27.40;39.20;;;;;;5088758;28;20399;-67
2023/06/15 09:51:02;;;;;;;4.65;2.10;;;27.50;38.90;;;;;;5091734;28;20040;-67
2023/06/15 09:53:30;;;;;;;3.95;2.22;;;27.60;38.60;;;;;;5094899;28;20035;-67
2023/06/15 09:55:57;;;;;;;4.10;2.30;;;27.80;38.60;;;;;;5087716;28;20093;-67
2023/06/15 09:58:22;;;;;;;4.07;2.42;;;28.10;38.40;;;;;;5089475;28;20478;-67
2023/06/15 10:00:49;;;;;;;3.85;2.28;;;27.90;37.90;;;;;;5090782;28;20030;-67
2023/06/15 10:03:19;;;;;;;4.35;2.35;;;27.70;38.20;;;;;;5087852;28;20624;-67
2023/06/15 10:05:48;;;;;;;4.47;2.33;;;27.90;38.10;;;;;;5087861;28;20482;-67
2023/06/15 10:08:16;;;;;;;4.05;2.75;;;28.10;37.90;;;;;;5090648;28;20032;-67
2023/06/15 10:10:43;;;;;;;6.55;2.80;;;28.30;36.90;;;;;;5090695;28;20501;-67
2023/06/15 10:13:15;;;;;;;3.20;2.30;;;28.00;37.20;;;;;;5093031;28;20043;-67
2023/06/15 10:15:45;;;;;;;5.55;2.90;;;28.10;37.60;;;;;;5090617;28;20609;-67
2023/06/15 10:18:13;;;;;;;4.20;2.50;;;28.00;36.40;;;;;;5090778;28;20096;-67
2023/06/15 10:20:40;;;;;;;3.28;2.25;;;27.90;37.30;;;;;;5090557;28;20502;-67
2023/06/15 10:23:13;;;;;;;3.60;2.53;;;28.00;37.00;;;;;;5094898;28;20050;-67
2023/06/15 10:25:42;;;;;;;4.35;2.63;;;27.90;37.00;;;;;;5090526;28;20069;-67
2023/06/15 10:28:11;;;;;;;4.45;2.60;;;27.90;37.50;;;;;;5091405;28;20027;-67
2023/06/15 10:30:48;;;;;;;4.80;2.20;;;27.80;37.40;;;;;;5094740;28;20040;-67
2023/06/15 10:33:36;;;;;;;2.40;2.00;;;27.80;37.60;;;;;;5094011;28;20359;-67
2023/06/15 10:36:40;;;;;;;3.38;2.22;;;27.80;37.80;;;;;;5090105;28;20039;-67
2023/06/15 10:39:29;;;;;;;3.47;2.20;;;27.90;38.40;;;;;;5026821;28;20076;-67
2023/06/15 10:41:57;;;;;;;4.30;2.25;;;27.90;37.60;;;;;;5086783;28;20036;-67
2023/06/15 10:44:31;;;;;;;2.67;2.35;;;28.00;37.70;;;;;;5089736;28;20020;-66
2023/06/15 10:47:14;;;;;;;5.68;2.17;;;28.00;37.40;;;;;;5091739;28;20028;-66
2023/06/15 10:49:48;;;;;;;3.38;2.50;;;27.90;37.20;;;;;;5086965;28;20024;-66
2023/06/15 10:52:14;;;;;;;3.90;2.20;;;27.80;37.00;;;;;;5089619;28;20103;-67
2023/06/15 10:54:39;;;;;;;3.67;2.15;;;27.80;37.00;;;;;;5090663;28;20111;-67
2023/06/15 10:57:06;;;;;;;4.57;2.15;;;27.90;37.00;;;;;;5089681;28;20024;-67
2023/06/15 10:59:41;;;;;;;3.10;2.20;;;28.20;36.70;;;;;;5091361;28;20035;-67
2023/06/15 11:02:29;;;;;;;2.78;2.08;;;28.40;36.00;;;;;;5089532;28;20020;-67
2023/06/15 11:05:02;;;;;;;3.65;2.20;;;28.40;36.20;;;;;;5091407;28;20030;-67
2023/06/15 11:07:38;;;;;;;4.60;2.40;;;28.70;36.10;;;;;;5090188;28;20481;-67
2023/06/15 11:10:22;;;;;;;3.53;2.20;;;28.60;35.30;;;;;;5089287;28;20078;-67
2023/06/15 11:12:58;;;;;;;3.05;2.15;;;28.50;35.70;;;;;;5090407;28;20119;-67
2023/06/15 11:15:31;;;;;;;4.53;2.25;;;28.70;35.90;;;;;;5089184;28;20016;-67
2023/06/15 11:18:06;;;;;;;3.33;2.30;;;28.80;35.90;;;;;;5089626;28;20108;-67
2023/06/15 11:20:38;;;;;;;3.25;2.33;;;28.80;35.70;;;;;;5088061;28;20042;-67
2023/06/15 11:23:11;;;;;;;4.35;2.30;;;28.60;35.70;;;;;;5089528;28;20016;-67
2023/06/15 11:25:41;;;;;;;4.32;2.30;;;28.40;36.00;;;;;;5092786;28;20013;-67
2023/06/15 11:28:09;;;;;;;4.50;1.88;;;28.30;36.20;;;;;;5089737;28;20020;-67
2023/06/15 11:30:37;;;;;;;5.03;2.08;;;28.30;36.40;;;;;;5091516;28;20028;-67
2023/06/15 11:33:02;;;;;;;3.55;2.00;;;28.30;36.00;;;;;;5093071;28;20595;-67
2023/06/15 11:35:30;;;;;;;2.05;1.88;;;28.30;35.50;;;;;;5089841;28;20021;-67
2023/06/15 11:37:57;;;;;;;2.08;1.88;;;28.50;35.40;;;;;;5089043;28;20036;-67
2023/06/15 11:40:22;;;;;;;3.10;2.20;;;28.70;35.00;;;;;;5089251;28;20024;-67
2023/06/15 11:42:48;;;;;;;2.78;2.10;;;29.10;34.70;;;;;;5093224;28;20083;-67
2023/06/15 11:45:18;;;;;;;3.97;2.15;;;29.30;34.20;;;;;;5088410;28;20024;-67
2023/06/15 11:47:45;;;;;;;2.58;2.10;;;29.70;33.90;;;;;;5087356;28;20030;-67
2023/06/15 11:50:10;;;;;;;4.22;2.38;;;29.90;33.30;;;;;;5082628;28;20020;-67
2023/06/15 11:52:42;;;;;;;2.50;2.08;;;29.80;33.00;;;;;;5086086;28;20035;-67
2023/06/15 11:55:10;;;;;;;5.13;2.40;;;29.80;33.30;;;;;;5087802;28;20012;-67
2023/06/15 11:57:36;;;;;;;2.38;2.08;;;29.70;32.70;;;;;;5087698;28;20019;-67
2023/06/15 12:00:07;;;;;;;3.28;2.30;;;29.70;33.00;;;;;;5087493;28;20101;-67
2023/06/15 12:02:33;;;;;;;3.17;2.28;;;29.80;33.10;;;;;;5084842;28;20032;-67
2023/06/15 12:04:59;;;;;;;2.67;2.00;;;30.00;33.20;;;;;;5090299;28;20486;-67
2023/06/15 12:07:25;;;;;;;3.88;2.33;;;30.00;33.10;;;;;;5087971;28;20047;-67
2023/06/15 12:09:51;;;;;;;3.05;1.90;;;29.90;33.00;;;;;;5083728;28;20078;-67
2023/06/15 12:12:30;;;;;;;2.42;1.90;;;30.00;33.10;;;;;;5091478;28;20368;-67
2023/06/15 12:14:58;;;;;;;3.80;2.00;;;30.10;32.90;;;;;;5091849;28;20502;-67
2023/06/15 12:17:31;;;;;;;3.38;1.95;;;30.10;32.70;;;;;;5091640;28;20051;-67
2023/06/15 12:20:11;;;;;;;2.47;1.80;;;30.40;32.40;;;;;;5080648;28;20025;-67
2023/06/15 12:22:41;;;;;;;4.32;2.10;;;30.30;32.30;;;;;;5087881;28;20020;-67
2023/06/15 12:25:07;;;;;;;4.78;2.13;;;30.60;32.60;;;;;;5091891;28;20072;-67
2023/06/15 12:27:33;;;;;;;5.05;2.30;;;30.80;32.40;;;;;;5091731;28;20028;-67
2023/06/15 12:30:17;;;;;;;3.58;2.13;;;31.10;32.10;;;;;;5092316;28;20036;-67
2023/06/15 12:32:44;;;;;;;6.30;1.85;;;31.20;31.70;;;;;;5094220;28;20477;-67
2023/06/15 12:35:31;;;;;;;2.97;2.13;;;31.10;31.30;;;;;;5089611;28;20517;-67
2023/06/15 12:37:57;;;;;;;3.05;1.90;;;30.90;31.40;;;;;;5090339;28;20036;-67
2023/06/15 12:40:23;;;;;;;2.60;1.88;;;30.90;31.50;;;;;;5093156;28;20020;-67
2023/06/15 12:43:00;;;;;;;4.20;1.90;;;30.90;32.00;;;;;;5091749;28;20020;-67
2023/06/15 12:45:26;;;;;;;3.47;2.30;;;30.80;31.40;;;;;;5093805;28;20011;-67
2023/06/15 12:47:52;;;;;;;3.35;1.90;;;30.90;31.30;;;;;;5092064;28;20078;-67
2023/06/15 12:50:17;;;;;;;4.80;2.22;;;31.00;31.50;;;;;;5090522;28;20047;-67